Time;durP1;ratioP1;P1;durP2;ratioP2;P2;SDS_P1;SDS_P2;PMS_P1;PMS_P2;Temp;Humidity;BMP_temperature;BMP_pressure;BME280_temperature;BME280_humidity;BME280_pressure;Samples;Min_cycle;Max_cycle;Signal;HPM_P1;HPM_P2
2023/07/06 00:02:05;;;;;;;9.82;5.28;;;;;;;23.04;56.38;99623.19;7738152;32;39866;-77
2023/07/06 00:06:21;;;;;;;10.80;4.55;;;;;;;22.79;58.15;99628.13;7738060;32;40857;-77
2023/07/06 00:10:39;;;;;;;13.65;5.07;;;;;;;22.98;57.27;99617.09;7737887;32;37892;-77
2023/07/06 00:14:56;;;;;;;10.35;4.80;;;;;;;22.78;57.50;99629.28;7737816;32;37819;-77
2023/07/06 00:19:13;;;;;;;9.98;5.25;;;;;;;22.86;56.91;99614.41;7737940;32;39449;-78
2023/07/06 00:23:32;;;;;;;10.25;4.68;;;;;;;22.86;57.43;99615.22;7737877;32;40097;-78
2023/07/06 00:27:48;;;;;;;10.55;5.25;;;;;;;22.90;56.94;99617.28;7737684;32;38815;-77
2023/07/06 00:32:15;;;;;;;12.25;4.30;;;;;;;22.64;57.58;99618.63;7737698;32;37117;-77
2023/07/06 00:36:35;;;;;;;8.63;4.70;;;;;;;22.72;56.55;99608.50;7737797;32;40686;-78
2023/07/06 00:40:57;;;;;;;10.90;4.37;;;;;;;22.58;57.00;99606.16;7737604;32;39909;-77
2023/07/06 00:45:15;;;;;;;;;;;;;;;22.82;56.06;99614.34;7736791;32;38443;-78
2023/07/06 00:49:32;;;;;;;9.50;4.43;;;;;;;22.64;55.31;99604.72;7723772;32;37159;-78
2023/07/06 00:54:01;;;;;;;7.90;4.22;;;;;;;22.49;56.10;99589.66;7723576;32;40147;-78
2023/07/06 00:58:37;;;;;;;7.55;4.18;;;;;;;22.59;55.79;99588.31;7737202;32;40047;-77
2023/07/06 01:03:00;;;;;;;9.15;4.20;;;;;;;22.31;55.77;99586.41;7737134;32;38711;-77
2023/07/06 01:07:19;;;;;;;;;;;;;;;22.45;55.73;99586.78;7737418;32;37615;-77
2023/07/06 01:11:36;;;;;;;9.45;4.68;;;;;;;22.68;54.46;99588.97;7737314;32;39410;-78
2023/07/06 01:16:00;;;;;;;10.93;4.32;;;;;;;22.57;55.03;99597.00;7723197;32;38283;-77
2023/07/06 01:20:25;;;;;;;10.63;4.03;;;;;;;22.78;54.89;99593.97;7736685;32;37983;-77
2023/07/06 01:25:10;;;;;;;9.43;4.37;;;;;;;22.61;55.83;99591.53;7711078;32;37221;-77
2023/07/06 01:30:04;;;;;;;10.27;4.45;;;;;;;22.39;56.87;99604.87;7719176;32;40060;-77
2023/07/06 01:34:24;;;;;;;8.50;4.15;;;;;;;22.23;56.70;99602.06;7613896;32;40702;-77
2023/07/06 01:38:41;;;;;;;8.70;3.72;;;;;;;21.93;57.66;99598.81;7688834;32;37892;-76
2023/07/06 01:42:59;;;;;;;10.57;4.10;;;;;;;22.10;57.25;99615.19;7736187;32;36986;-77
2023/07/06 01:47:18;;;;;;;8.75;4.00;;;;;;;21.76;58.38;99606.28;7736082;32;40090;-77
2023/07/06 01:52:03;;;;;;;9.85;4.20;;;;;;;21.69;58.76;99608.03;7722536;32;39590;-76
2023/07/06 01:56:43;;;;;;;9.90;4.18;;;;;;;21.71;58.89;99614.88;7726320;32;38759;-77
2023/07/06 02:01:10;;;;;;;9.82;3.55;;;;;;;21.48;60.09;99605.44;7725873;32;37063;-78
2023/07/06 02:05:27;;;;;;;8.25;4.00;;;;;;;21.57;59.75;99608.88;7726575;32;39229;-77
2023/07/06 02:09:47;;;;;;;9.77;3.30;;;;;;;21.41;60.24;99599.66;7725703;32;39987;-77
2023/07/06 02:14:03;;;;;;;7.75;3.70;;;;;;;21.50;59.84;99603.13;7739025;32;37873;-77
2023/07/06 02:18:20;;;;;;;12.45;4.07;;;;;;;21.53;59.60;99597.69;7739327;32;37397;-77
2023/07/06 02:22:36;;;;;;;8.18;4.12;;;;;;;21.47;59.80;99609.34;7739337;32;39040;-77
2023/07/06 02:26:55;;;;;;;9.10;3.80;;;;;;;21.45;59.88;99615.22;7739255;32;39984;-77
2023/07/06 02:31:11;;;;;;;9.07;4.05;;;;;;;21.37;60.00;99616.97;7739173;32;39417;-77
2023/07/06 02:35:28;;;;;;;7.00;4.00;;;;;;;21.32;60.50;99625.53;7725358;32;37008;-77
2023/07/06 02:39:44;;;;;;;8.73;4.20;;;;;;;21.25;60.71;99633.63;7725692;32;39000;-77
2023/07/06 02:44:01;;;;;;;10.25;4.00;;;;;;;20.70;62.78;99635.00;7739415;32;40579;-77
2023/07/06 02:48:18;;;;;;;8.30;4.45;;;;;;;21.00;61.77;99639.16;7738791;32;38634;-77
2023/07/06 02:52:34;;;;;;;8.75;3.75;;;;;;;21.09;62.42;99650.13;7738836;32;37917;-78
2023/07/06 02:56:51;;;;;;;10.88;3.90;;;;;;;20.89;62.96;99654.62;7738730;32;39318;-77
2023/07/06 03:01:08;;;;;;;7.80;3.58;;;;;;;21.01;62.27;99651.06;7738757;32;39896;-77
2023/07/06 03:05:24;;;;;;;8.70;4.10;;;;;;;20.74;62.86;99663.59;7738920;32;37591;-76
2023/07/06 03:09:42;;;;;;;10.85;4.00;;;;;;;20.82;62.57;99669.03;7738262;32;37057;-77
2023/07/06 03:14:00;;;;;;;12.05;4.28;;;;;;;20.76;62.94;99667.63;7724669;32;39994;-77
2023/07/06 03:18:18;;;;;;;7.68;4.07;;;;;;;20.64;63.28;99667.63;7724605;32;40553;-77
2023/07/06 03:22:34;;;;;;;8.63;3.72;;;;;;;20.89;62.18;99670.47;7738572;32;38540;-77
2023/07/06 03:26:52;;;;;;;7.68;4.05;;;;;;;20.84;62.02;99673.44;7738746;32;37803;-78
2023/07/06 03:31:08;;;;;;;6.53;3.78;;;;;;;20.93;61.88;99677.72;7738601;32;39110;-77
2023/07/06 03:35:25;;;;;;;9.93;4.12;;;;;;;21.13;61.14;99667.69;7738201;32;40685;-77
2023/07/06 03:39:41;;;;;;;8.05;3.75;;;;;;;20.89;61.79;99668.47;7724543;32;38475;-77
2023/07/06 03:43:58;;;;;;;6.97;3.75;;;;;;;20.77;62.08;99671.25;7738371;32;37239;-77
2023/07/06 03:48:15;;;;;;;7.57;3.85;;;;;;;20.84;61.72;99682.56;7738365;32;39386;-77
2023/07/06 03:52:31;;;;;;;8.60;3.90;;;;;;;20.56;62.88;99687.91;7738260;32;39936;-77
2023/07/06 03:56:48;;;;;;;6.93;3.58;;;;;;;20.73;62.69;99682.19;7738068;32;38164;-76
2023/07/06 04:01:06;;;;;;;6.72;3.08;;;;;;;20.95;62.10;99694.78;7738190;32;37641;-77
2023/07/06 04:05:25;;;;;;;8.43;3.42;;;;;;;20.59;63.29;99703.81;7738242;32;39185;-77
2023/07/06 04:09:41;;;;;;;6.90;3.35;;;;;;;20.48;64.00;99703.44;7738113;32;39972;-78
2023/07/06 04:13:58;;;;;;;8.50;3.40;;;;;;;20.45;63.77;99712.41;7737711;32;37976;-77
2023/07/06 04:18:15;;;;;;;6.70;3.25;;;;;;;20.44;63.36;99716.34;7736628;32;37226;-77
2023/07/06 04:22:31;;;;;;;6.03;2.85;;;;;;;20.88;62.00;99705.66;7737825;32;39423;-77
2023/07/06 04:26:51;;;;;;;6.87;3.42;;;;;;;20.74;62.02;99694.88;7737787;32;40024;-78
2023/07/06 04:31:08;;;;;;;7.55;3.17;;;;;;;20.62;62.67;99695.66;7737777;32;37815;-78
2023/07/06 04:35:24;;;;;;;7.00;2.85;;;;;;;21.01;61.25;99693.44;7737688;32;37895;-78
2023/07/06 04:39:42;;;;;;;7.15;3.35;;;;;;;21.10;61.12;99703.63;7737750;32;39368;-77
2023/07/06 04:43:58;;;;;;;8.73;3.22;;;;;;;20.72;61.86;99701.94;7737589;32;40541;-78
2023/07/06 04:48:16;;;;;;;6.75;3.22;;;;;;;21.08;60.94;99708.69;7723621;32;37769;-77
2023/07/06 04:52:34;;;;;;;6.65;2.62;;;;;;;20.65;61.10;99719.09;7737514;32;36202;-76
2023/07/06 04:56:51;;;;;;;6.65;3.00;;;;;;;20.33;62.12;99723.44;7737334;32;39914;-77
2023/07/06 05:01:07;;;;;;;13.48;3.30;;;;;;;20.75;61.11;99715.09;7737233;32;40113;-78
2023/07/06 05:05:25;;;;;;;4.25;2.12;;;;;;;21.14;60.25;99719.19;7736969;32;38839;-77
2023/07/06 05:09:42;;;;;;;6.07;2.75;;;;;;;21.12;60.89;99715.16;7737109;32;38056;-77
2023/07/06 05:13:59;;;;;;;5.47;2.50;;;;;;;21.17;59.93;99717.72;7736855;32;39093;-77
2023/07/06 05:18:19;;;;;;;5.32;2.85;;;;;;;21.68;57.52;99707.09;7736708;32;41308;-76
2023/07/06 05:22:39;;;;;;;8.43;2.80;;;;;;;21.46;58.50;99696.47;7736741;32;38397;-77
2023/07/06 05:26:56;;;;;;;4.80;2.47;;;;;;;21.34;59.61;99700.03;7736602;32;37230;-76
2023/07/06 05:31:12;;;;;;;10.68;3.22;;;;;;;21.65;59.62;99704.22;7738140;32;39079;-76
2023/07/06 05:35:29;;;;;;;6.35;2.80;;;;;;;21.23;59.37;99710.78;7739839;32;40941;-76
2023/07/06 05:39:45;;;;;;;6.55;3.08;;;;;;;21.38;59.08;99700.97;7739669;32;37942;-76
2023/07/06 05:44:02;;;;;;;9.50;3.08;;;;;;;21.75;57.81;99693.47;7739700;32;36992;-77
2023/07/06 05:48:18;;;;;;;9.00;3.05;;;;;;;21.63;57.85;99696.25;7739769;32;40147;-77
2023/07/06 05:52:34;;;;;;;7.05;3.10;;;;;;;21.48;59.29;99702.50;7739654;32;39652;-76
2023/07/06 05:56:52;;;;;;;7.47;2.97;;;;;;;21.63;59.25;99717.63;7739530;32;38100;-77
2023/07/06 06:01:09;;;;;;;7.43;2.83;;;;;;;21.23;59.75;99712.75;7739676;32;37132;-77
2023/07/06 06:05:26;;;;;;;9.25;2.85;;;;;;;21.82;58.91;99703.13;7739591;32;40153;-77
2023/07/06 06:09:42;;;;;;;7.12;2.92;;;;;;;21.78;59.07;99699.47;7739463;32;41448;-75
2023/07/06 06:13:58;;;;;;;11.48;3.10;;;;;;;22.02;58.75;99702.16;7739226;32;37808;-76
2023/07/06 06:18:15;;;;;;;8.32;3.42;;;;;;;21.49;59.52;99706.88;7739281;32;37228;-75
2023/07/06 06:22:33;;;;;;;5.70;3.20;;;;;;;21.42;59.66;99695.53;7739306;32;40301;-75
2023/07/06 06:26:50;;;;;;;8.18;3.00;;;;;;;21.84;58.32;99706.41;7739370;32;39961;-76
2023/07/06 06:31:08;;;;;;;8.73;3.75;;;;;;;21.64;59.13;99736.69;7739147;32;36423;-76
2023/07/06 06:35:29;;;;;;;9.07;3.42;;;;;;;21.08;60.69;99741.97;7739205;32;38580;-76
2023/07/06 06:39:46;;;;;;;10.57;3.40;;;;;;;20.82;61.60;99759.66;7735728;32;40075;-75
2023/07/06 06:44:07;;;;;;;8.35;3.15;;;;;;;20.39;62.91;99780.22;7734199;32;41354;-79
2023/07/06 06:48:23;;;;;;;8.00;3.30;;;;;;;20.12;64.30;99778.78;7705184;32;38710;-79
2023/07/06 06:52:40;;;;;;;9.82;3.15;;;;;;;20.34;63.77;99775.69;7720772;32;37837;-79
2023/07/06 06:56:58;;;;;;;7.87;3.00;;;;;;;20.71;62.42;99770.34;7725484;32;39323;-78
2023/07/06 07:01:15;;;;;;;18.67;4.00;;;;;;;20.60;63.67;99755.28;7715735;32;39992;-77
2023/07/06 07:05:31;;;;;;;8.20;3.87;;;;;;;20.75;65.13;99751.09;7738841;32;38814;-76
2023/07/06 07:09:50;;;;;;;7.43;3.65;;;;;;;20.89;64.47;99740.53;7738878;32;37774;-77
2023/07/06 07:14:07;;;;;;;10.43;3.92;;;;;;;21.23;65.10;99749.59;7738710;32;39299;-76
2023/07/06 07:18:26;;;;;;;15.45;4.30;;;;;;;21.26;64.30;99759.19;7738664;32;39619;-78
2023/07/06 07:22:44;;;;;;;10.70;3.92;;;;;;;21.33;66.03;99757.44;7738680;32;38212;-78
2023/07/06 07:27:01;;;;;;;11.85;3.90;;;;;;;21.65;63.83;99751.38;7738699;32;38750;-78
2023/07/06 07:31:19;;;;;;;10.60;4.03;;;;;;;21.50;64.27;99744.56;7738686;32;39349;-79
2023/07/06 07:35:41;;;;;;;10.80;4.18;;;;;;;21.55;64.20;99742.34;7738469;32;41340;-78
2023/07/06 07:40:00;;;;;;;8.40;3.90;;;;;;;20.66;65.72;99748.41;7738107;32;38134;-79
2023/07/06 07:44:16;;;;;;;7.62;3.35;;;;;;;21.59;64.17;99736.91;7715688;32;37579;-79
2023/07/06 07:48:38;;;;;;;7.30;3.22;;;;;;;21.89;62.70;99733.91;7725870;32;40175;-78
2023/07/06 07:52:54;;;;;;;8.60;3.72;;;;;;;22.19;62.28;99726.06;7738626;32;39222;-79
2023/07/06 07:57:14;;;;;;;10.88;3.83;;;;;;;22.49;62.57;99737.69;7732641;32;38640;-78
2023/07/06 08:01:32;;;;;;;13.95;3.85;;;;;;;22.54;61.35;99750.50;7701499;32;324681;-79
2023/07/06 08:05:51;;;;;;;11.20;3.70;;;;;;;22.68;60.45;99748.16;7711522;32;40156;-78
2023/07/06 08:10:08;;;;;;;9.15;3.22;;;;;;;22.68;61.72;99745.38;7711446;32;40202;-79
2023/07/06 08:14:41;;;;;;;9.13;3.50;;;;;;;22.98;61.40;99744.16;7711154;32;37921;-79
2023/07/06 08:18:58;;;;;;;9.73;3.47;;;;;;;23.11;63.97;99745.75;7710743;32;37003;-78
2023/07/06 08:23:34;;;;;;;8.25;3.35;;;;;;;23.42;59.82;99746.88;7727037;32;40616;-78
2023/07/06 08:27:52;;;;;;;8.10;3.90;;;;;;;23.36;59.05;99748.34;7712594;32;40799;-78
2023/07/06 08:32:11;;;;;;;7.82;3.62;;;;;;;23.80;58.23;99742.63;7716536;32;37618;-77
2023/07/06 08:36:28;;;;;;;8.82;3.75;;;;;;;24.18;59.97;99741.09;7718769;32;37173;-77
2023/07/06 08:40:48;;;;;;;9.70;3.50;;;;;;;24.61;56.10;99739.25;7727047;32;40143;-70
2023/07/06 08:45:05;;;;;;;10.90;3.72;;;;;;;24.93;57.07;99744.63;7730773;32;39773;-69
2023/07/06 08:49:31;;;;;;;6.57;3.62;;;;;;;24.37;54.64;99743.13;7715778;32;38654;-69
2023/07/06 08:54:00;;;;;;;11.50;4.07;;;;;;;24.71;52.60;99737.84;7719095;32;37904;-69
2023/07/06 08:58:28;;;;;;;12.80;4.03;;;;;;;25.42;53.85;99735.56;7719485;32;39177;-69
2023/07/06 09:02:48;;;;;;;6.97;3.50;;;;;;;25.75;51.79;99728.50;7705001;32;40624;-69
2023/07/06 09:07:05;;;;;;;5.05;3.20;;;;;;;25.35;51.58;99734.63;7725897;32;37572;-70
2023/07/06 09:11:22;;;;;;;7.62;3.00;;;;;;;25.58;49.89;99720.66;7696742;32;36989;-70
2023/07/06 09:15:39;;;;;;;12.27;3.37;;;;;;;25.80;51.92;99728.16;7710163;32;39253;-69
2023/07/06 09:19:56;;;;;;;11.02;3.55;;;;;;;25.89;50.84;99724.28;7710086;32;40951;-69
2023/07/06 09:24:12;;;;;;;9.13;2.90;;;;;;;26.05;49.38;99722.16;7733453;32;38274;-70
2023/07/06 09:28:29;;;;;;;6.50;3.28;;;;;;;26.31;52.90;99712.09;7736747;32;37335;-69
2023/07/06 09:32:45;;;;;;;7.53;3.65;;;;;;;26.74;47.79;99705.03;7736711;32;40216;-69
2023/07/06 09:37:03;;;;;;;7.78;2.75;;;;;;;26.83;45.77;99713.09;7736447;32;39911;-69
2023/07/06 09:41:27;;;;;;;5.57;2.97;;;;;;;26.34;49.93;99705.75;7736421;32;37949;-70
2023/07/06 09:45:44;;;;;;;8.10;2.95;;;;;;;25.73;46.82;99705.69;7736387;32;37174;-80
2023/07/06 09:50:14;;;;;;;8.27;3.25;;;;;;;26.17;49.80;99707.94;7721839;32;39853;-79
2023/07/06 09:55:05;;;;;;;8.35;3.22;;;;;;;26.05;50.06;99708.19;7686017;32;40663;-78
2023/07/06 09:59:22;;;;;;;7.35;3.10;;;;;;;25.78;48.53;99705.38;7715234;32;37810;-79
2023/07/06 10:04:04;;;;;;;9.50;3.83;;;;;;;25.88;50.04;99717.09;7735744;32;37028;-78
2023/07/06 10:08:24;;;;;;;7.20;3.20;;;;;;;25.49;49.33;99716.12;7708853;32;39364;-79
2023/07/06 10:13:15;;;;;;;8.93;3.25;;;;;;;25.22;49.37;99715.25;7695777;32;40282;-79
2023/07/06 10:17:40;;;;;;;7.68;2.80;;;;;;;25.55;49.76;99713.03;7698823;32;37715;-79
2023/07/06 10:22:14;;;;;;;11.90;3.25;;;;;;;25.62;49.07;99713.13;7739435;32;37186;-78
2023/07/06 10:26:37;;;;;;;8.32;3.45;;;;;;;25.36;49.12;99713.94;7715503;32;39829;-78
2023/07/06 10:30:56;;;;;;;5.32;2.80;;;;;;;25.28;48.87;99707.41;7704951;32;40003;-78
2023/07/06 10:35:26;;;;;;;7.65;2.87;;;;;;;25.53;51.86;99701.44;7703718;32;37145;-78
2023/07/06 10:39:45;;;;;;;7.87;3.42;;;;;;;25.88;48.60;99705.94;7700210;32;36731;-79
2023/07/06 10:44:40;;;;;;;5.40;3.30;;;;;;;25.90;47.03;99703.56;7726617;32;39396;-80
2023/07/06 10:49:13;;;;;;;6.12;3.40;;;;;;;25.70;47.43;99706.47;7738686;32;40126;-78
2023/07/06 10:53:40;;;;;;;8.25;3.17;;;;;;;26.10;46.47;99707.84;7712238;32;37900;-79
2023/07/06 10:58:09;;;;;;;6.65;2.92;;;;;;;26.45;44.57;99706.69;7720734;32;38071;-82
2023/07/06 11:02:40;;;;;;;8.57;3.10;;;;;;;26.48;43.94;99711.50;7705565;32;39277;-82
2023/07/06 11:06:56;;;;;;;8.43;3.25;;;;;;;26.52;42.88;99705.97;7725839;32;40557;-81
2023/07/06 11:11:22;;;;;;;6.70;2.95;;;;;;;27.09;42.20;99700.16;7738912;32;37862;-80
2023/07/06 11:15:45;;;;;;;6.25;2.90;;;;;;;27.45;44.35;99694.88;7725999;32;37907;-81
2023/07/06 11:20:15;;;;;;;5.78;3.03;;;;;;;27.40;42.46;99693.25;7712076;32;39501;-80
2023/07/06 11:24:38;;;;;;;7.40;2.92;;;;;;;28.31;40.63;99695.38;7712024;32;40983;-80
2023/07/06 11:28:55;;;;;;;7.75;3.30;;;;;;;28.20;40.21;99683.31;7699226;32;38824;-78
2023/07/06 11:33:30;;;;;;;7.80;3.15;;;;;;;28.28;40.11;99680.16;7712192;32;35362;-80
2023/07/06 11:38:00;;;;;;;6.10;2.55;;;;;;;28.56;38.42;99677.88;7711770;32;40239;-79
2023/07/06 11:42:49;;;;;;;5.90;2.75;;;;;;;28.13;37.58;99680.50;7711798;32;39896;-78
2023/07/06 11:47:37;;;;;;;6.37;2.83;;;;;;;28.65;38.04;99676.28;7705850;32;37771;-78
2023/07/06 11:51:58;;;;;;;6.15;2.67;;;;;;;28.37;40.39;99671.41;7711733;32;36875;-79
2023/07/06 11:56:49;;;;;;;8.10;2.60;;;;;;;28.79;36.91;99677.53;7711748;32;39434;-79
2023/07/06 12:01:31;;;;;;;5.35;2.90;;;;;;;29.01;37.13;99672.72;7700949;32;40051;-79
2023/07/06 12:05:51;;;;;;;5.40;2.67;;;;;;;29.67;35.50;99665.87;7700902;32;37683;-79
2023/07/06 12:10:13;;;;;;;6.15;2.80;;;;;;;30.07;36.22;99663.78;7711536;32;37893;-79
2023/07/06 12:14:34;;;;;;;4.70;2.50;;;;;;;30.38;33.21;99670.47;7711296;32;39460;-79
2023/07/06 12:19:03;;;;;;;4.63;2.40;;;;;;;30.49;32.31;99662.78;7711365;32;40741;-79
2023/07/06 12:23:19;;;;;;;4.68;2.45;;;;;;;30.83;30.44;99661.34;7697456;32;38685;-79
2023/07/06 12:27:39;;;;;;;6.40;2.35;;;;;;;31.56;34.34;99662.38;7697754;32;37860;-79
2023/07/06 12:32:05;;;;;;;5.03;2.50;;;;;;;31.97;29.66;99653.84;7711456;32;39376;-79
2023/07/06 12:36:25;;;;;;;3.78;2.20;;;;;;;32.31;31.55;99653.03;7698321;32;39911;-79
2023/07/06 12:40:42;;;;;;;6.15;2.55;;;;;;;32.00;31.45;99646.59;7709790;32;38650;-79
2023/07/06 12:44:58;;;;;;;3.78;2.00;;;;;;;32.07;30.83;99640.88;7711023;32;37751;-79
2023/07/06 12:49:20;;;;;;;3.55;2.10;;;;;;;32.24;31.03;99643.91;7710960;32;39395;-79
2023/07/06 12:53:37;;;;;;;;;;;;;;;31.52;29.94;99644.72;7711212;32;40130;-79
2023/07/06 12:57:54;;;;;;;4.05;2.08;;;;;;;29.94;31.26;99647.38;7710864;32;38171;-79
2023/07/06 13:02:36;;;;;;;8.02;2.75;;;;;;;30.38;31.04;99635.94;7710715;32;36739;-79
2023/07/06 13:06:53;;;;;;;5.37;2.20;;;;;;;31.06;30.88;99632.66;7697861;32;40079;-79
2023/07/06 13:11:09;;;;;;;4.72;2.35;;;;;;;31.86;26.80;99625.00;7710379;32;40872;-79
2023/07/06 13:15:36;;;;;;;4.15;2.00;;;;;;;32.46;27.02;99628.28;7710045;32;38683;-79
2023/07/06 13:19:54;;;;;;;4.90;2.80;;;;;;;32.96;29.50;99631.53;7710240;32;37879;-79
2023/07/06 13:24:15;;;;;;;4.70;2.15;;;;;;;32.94;27.29;99624.31;7710087;32;39384;-79
2023/07/06 13:28:34;;;;;;;5.40;2.00;;;;;;;32.66;27.03;99633.25;7696700;32;39587;-79
2023/07/06 13:32:51;;;;;;;7.00;2.35;;;;;;;33.20;29.78;99640.84;7733732;32;37867;-84
2023/07/06 13:37:15;;;;;;;2.97;1.95;;;;;;;33.39;28.46;99642.13;7736586;32;37039;-80
2023/07/06 13:41:31;;;;;;;4.68;2.42;;;;;;;33.04;29.18;99647.94;7719704;32;40120;-79
2023/07/06 13:45:49;;;;;;;6.03;2.67;;;;;;;32.32;34.31;99656.66;7735708;32;40872;-79
2023/07/06 13:50:06;;;;;;;4.90;2.65;;;;;;;31.59;36.03;99651.06;7735466;32;38079;-80
2023/07/06 13:54:25;;;;;;;9.80;2.70;;;;;;;30.78;37.95;99656.16;7730163;32;37289;-79
2023/07/06 13:58:43;;;;;;;5.85;2.50;;;;;;;30.87;38.79;99656.50;7721690;32;40055;-79
2023/07/06 14:02:59;;;;;;;6.15;2.67;;;;;;;30.34;39.40;99658.44;7711928;32;40021;-79
2023/07/06 14:07:18;;;;;;;3.95;2.70;;;;;;;30.09;40.17;99664.16;7712689;32;39408;-79
2023/07/06 14:11:35;;;;;;;5.05;2.30;;;;;;;30.16;40.13;99669.75;7712224;32;37164;-80
2023/07/06 14:15:53;;;;;;;6.45;2.72;;;;;;;30.10;41.02;99677.00;7712262;32;40278;-80
2023/07/06 14:20:11;;;;;;;5.55;2.78;;;;;;;30.54;40.46;99672.00;7712300;32;39991;-79
2023/07/06 14:24:28;;;;;;;5.60;2.50;;;;;;;31.27;39.29;99687.97;7711747;32;37656;-80
2023/07/06 14:28:49;;;;;;;8.23;3.08;;;;;;;31.89;40.06;99691.00;7712598;32;36996;-80
2023/07/06 14:33:07;;;;;;;7.90;3.00;;;;;;;32.37;38.19;99688.03;7711750;32;40178;-79
2023/07/06 14:37:24;;;;;;;4.93;2.80;;;;;;;33.03;37.42;99682.22;7698893;32;41207;-79
2023/07/06 14:41:41;;;;;;;3.95;2.22;;;;;;;33.09;36.95;99680.53;7711832;32;37678;-80
2023/07/06 14:45:57;;;;;;;4.75;2.50;;;;;;;33.29;34.86;99687.09;7711994;32;37142;-80
2023/07/06 14:50:17;;;;;;;3.42;2.22;;;;;;;33.13;35.96;99681.25;7710862;32;39802;-79
2023/07/06 14:54:33;;;;;;;4.62;2.35;;;;;;;32.34;35.55;99677.59;7711587;32;39017;-80
2023/07/06 14:58:50;;;;;;;6.45;2.22;;;;;;;31.67;38.40;99679.97;7725922;32;37547;-79
2023/07/06 15:03:06;;;;;;;5.60;2.40;;;;;;;31.45;39.08;99674.50;7737939;32;37150;-80
2023/07/06 15:07:24;;;;;;;4.90;2.60;;;;;;;31.29;38.78;99671.47;7738782;32;39075;-80
2023/07/06 15:11:40;;;;;;;2.85;2.05;;;;;;;31.26;38.95;99675.09;7724294;32;39709;-79
2023/07/06 15:15:57;;;;;;;4.47;2.53;;;;;;;31.71;38.98;99666.63;7738481;32;37962;-79
2023/07/06 15:20:15;;;;;;;6.93;2.25;;;;;;;32.12;37.10;99665.00;7737939;32;37331;-80
2023/07/06 15:24:31;;;;;;;4.85;2.80;;;;;;;32.28;36.73;99667.19;7738758;32;39937;-79
2023/07/06 15:28:50;;;;;;;4.35;2.30;;;;;;;32.68;35.61;99656.19;7737803;32;39610;-80
2023/07/06 15:33:07;;;;;;;4.00;2.53;;;;;;;32.44;37.07;99660.94;7738690;32;38113;-80
2023/07/06 15:37:25;;;;;;;4.55;2.35;;;;;;;32.42;35.96;99660.56;7738261;32;36599;-79
2023/07/06 15:41:41;;;;;;;4.07;2.15;;;;;;;32.15;36.32;99664.13;7737659;32;40203;-79
2023/07/06 15:45:58;;;;;;;8.65;5.03;;;;;;;32.06;35.84;99661.81;7736886;32;40757;-80
2023/07/06 15:50:15;;;;;;;4.03;2.40;;;;;;;32.01;34.80;99653.81;7727078;32;37728;-77
2023/07/06 15:54:31;;;;;;;7.45;3.25;;;;;;;32.45;33.99;99643.59;7738265;32;37057;-78
2023/07/06 15:59:02;;;;;;;7.50;4.45;;;;;;;32.41;34.72;99654.12;7737320;32;40158;-78
2023/07/06 16:03:19;;;;;;;4.78;2.87;;;;;;;31.94;35.26;99657.53;7737509;32;40115;-77
2023/07/06 16:07:36;;;;;;;5.50;2.28;;;;;;;32.03;33.83;99645.75;7724222;32;38731;-78
2023/07/06 16:11:53;;;;;;;6.40;2.50;;;;;;;31.70;34.82;99655.78;7737476;32;36951;-78
2023/07/06 16:16:09;;;;;;;5.35;2.12;;;;;;;31.80;35.52;99666.94;7737964;32;40168;-78
2023/07/06 16:20:25;;;;;;;8.85;2.67;;;;;;;31.66;35.99;99667.09;7737074;32;39906;-78
2023/07/06 16:24:42;;;;;;;4.62;2.60;;;;;;;31.64;36.41;99661.09;7737854;32;38603;-78
2023/07/06 16:28:58;;;;;;;2.92;1.90;;;;;;;31.21;36.40;99653.81;7737368;32;37141;-79
2023/07/06 16:33:15;;;;;;;2.72;2.20;;;;;;;31.25;35.63;99665.06;7722438;32;39871;-78
2023/07/06 16:37:31;;;;;;;10.15;5.85;;;;;;;30.84;36.10;99674.22;7710927;32;39999;-78
2023/07/06 16:41:47;;;;;;;4.87;2.33;;;;;;;30.78;35.94;99675.88;7710039;32;37826;-78
2023/07/06 16:46:04;;;;;;;4.57;2.58;;;;;;;30.33;37.20;99680.09;7710861;32;37397;-78
2023/07/06 16:50:21;;;;;;;3.03;2.25;;;;;;;30.43;37.16;99686.91;7710316;32;40082;-79
2023/07/06 16:54:37;;;;;;;4.65;2.08;;;;;;;30.31;37.68;99688.16;7731648;32;39999;-78
2023/07/06 16:58:54;;;;;;;2.75;1.80;;;;;;;29.85;38.46;99694.75;7736478;32;39149;-79
2023/07/06 17:03:11;;;;;;;3.50;2.22;;;;;;;29.73;38.69;99695.94;7736525;32;37636;-79
2023/07/06 17:07:28;;;;;;;4.97;2.25;;;;;;;29.37;39.44;99698.81;7737312;32;39390;-78
2023/07/06 17:11:44;;;;;;;6.12;2.58;;;;;;;29.28;40.44;99704.03;7736416;32;39578;-78
2023/07/06 17:16:02;;;;;;;4.55;2.08;;;;;;;29.37;40.08;99698.00;7736848;32;38076;-78
2023/07/06 17:20:18;;;;;;;3.95;2.62;;;;;;;29.03;40.97;99706.81;7736067;32;37139;-78
2023/07/06 17:24:35;;;;;;;7.07;2.97;;;;;;;28.68;41.97;99719.56;7736149;32;39049;-78
2023/07/06 17:28:51;;;;;;;5.60;2.70;;;;;;;28.76;41.94;99715.56;7725612;32;40909;-78
2023/07/06 17:33:08;;;;;;;5.62;2.37;;;;;;;28.47;42.32;99721.06;7739531;32;37936;-79
2023/07/06 17:37:24;;;;;;;5.55;2.70;;;;;;;28.15;42.68;99722.94;7739777;32;36834;-79
2023/07/06 17:41:41;;;;;;;8.80;3.75;;;;;;;27.88;42.81;99734.37;7738632;32;39436;-78
2023/07/06 17:45:58;;;;;;;5.78;3.42;;;;;;;27.80;42.43;99741.13;7733308;32;40804;-78
2023/07/06 17:50:15;;;;;;;8.43;4.47;;;;;;;27.49;42.98;99741.31;7739629;32;38077;-82
2023/07/06 17:54:32;;;;;;;8.68;4.87;;;;;;;27.39;43.12;99744.00;7739727;32;37965;-81
2023/07/06 17:58:49;;;;;;;8.45;4.70;;;;;;;27.05;44.47;99749.69;7727630;32;40190;-80
2023/07/06 18:03:05;;;;;;;7.93;3.28;;;;;;;27.03;44.51;99763.25;7720677;32;40768;-79
2023/07/06 18:07:22;;;;;;;9.68;4.93;;;;;;;26.95;44.86;99765.97;7724965;32;37955;-79
2023/07/06 18:11:38;;;;;;;10.15;4.53;;;;;;;26.72;45.99;99765.34;7711949;32;37882;-80
2023/07/06 18:15:55;;;;;;;6.07;2.90;;;;;;;26.70;46.21;99773.28;7713645;32;40068;-80
2023/07/06 18:20:16;;;;;;;7.35;3.20;;;;;;;26.63;45.81;99778.78;7722362;32;39892;-79
2023/07/06 18:24:40;;;;;;;20.33;9.52;;;;;;;26.52;45.98;99787.81;7694985;32;38743;-79
2023/07/06 18:28:56;;;;;;;39.03;22.08;;;;;;;26.29;47.63;99789.91;7730481;32;38016;-80
2023/07/06 18:33:14;;;;;;;21.05;12.60;;;;;;;26.25;47.69;99789.88;7739343;32;39802;-81
2023/07/06 18:37:31;;;;;;;10.15;5.03;;;;;;;26.10;48.07;99790.84;7738335;32;40022;-80
2023/07/06 18:41:48;;;;;;;8.15;3.25;;;;;;;25.96;48.68;99792.25;7739101;32;38030;-80
2023/07/06 18:46:05;;;;;;;5.72;3.12;;;;;;;25.94;48.93;99799.34;7739216;32;37811;-80
2023/07/06 18:50:22;;;;;;;7.55;2.53;;;;;;;25.74;49.42;99802.25;7726931;32;40261;-79
2023/07/06 18:54:38;;;;;;;6.00;2.35;;;;;;;25.58;50.30;99809.97;7712281;32;39801;-80
2023/07/06 18:58:55;;;;;;;3.92;2.22;;;;;;;25.38;50.27;99823.97;7712210;32;38673;-79
2023/07/06 19:03:11;;;;;;;7.30;2.72;;;;;;;25.44;49.88;99830.88;7712107;32;38675;-79
2023/07/06 19:07:28;;;;;;;9.00;2.70;;;;;;;25.39;50.46;99833.97;7712187;32;40112;-80
2023/07/06 19:11:44;;;;;;;7.07;2.70;;;;;;;25.23;51.19;99844.38;7731212;32;40630;-79
2023/07/06 19:16:01;;;;;;;4.40;2.47;;;;;;;25.11;51.11;99848.97;7737969;32;38722;-77
2023/07/06 19:20:18;;;;;;;6.50;2.50;;;;;;;25.06;50.96;99852.06;7737982;32;37805;-79
2023/07/06 19:24:34;;;;;;;6.25;2.50;;;;;;;24.87;51.36;99861.22;7738323;32;39470;-80
2023/07/06 19:28:50;;;;;;;4.03;2.25;;;;;;;24.85;51.45;99857.19;7736044;32;39746;-79
2023/07/06 19:33:07;;;;;;;4.80;2.47;;;;;;;24.86;52.06;99859.59;7737475;32;37942;-82
2023/07/06 19:37:24;;;;;;;4.57;2.50;;;;;;;24.85;51.16;99863.59;7729680;32;38010;-81
2023/07/06 19:41:40;;;;;;;5.82;2.72;;;;;;;24.61;51.87;99869.41;7763959;32;39106;-81
2023/07/06 19:46:04;;;;;;;6.12;2.37;;;;;;;24.37;52.86;99871.28;7728550;32;39974;-81
2023/07/06 19:50:36;;;;;;;6.18;3.00;;;;;;;24.46;52.70;99866.28;7728833;32;38184;-80
2023/07/06 19:54:52;;;;;;;6.80;2.53;;;;;;;24.34;52.83;99867.22;7730883;32;36798;-81
2023/07/06 19:59:09;;;;;;;5.75;2.30;;;;;;;24.27;52.94;99866.25;7731194;32;40128;-80
2023/07/06 20:03:27;;;;;;;6.57;2.22;;;;;;;24.53;51.82;99869.22;7734443;32;39862;-79
2023/07/06 20:07:45;;;;;;;8.07;2.65;;;;;;;24.45;52.10;99872.22;7734516;32;37977;-80
2023/07/06 20:12:02;;;;;;;5.68;2.70;;;;;;;24.41;52.24;99868.56;7722201;32;37087;-80
2023/07/06 20:16:19;;;;;;;6.03;2.90;;;;;;;24.26;52.67;99873.00;7725916;32;39309;-80
2023/07/06 20:20:35;;;;;;;4.15;2.40;;;;;;;24.05;53.22;99887.22;7731055;32;40068;-80